sensor_id;sensor_type;location;lat;lon;timestamp;P1;durP1;ratioP1;P2;durP2;ratioP2
75512;SDS011;64090;49.770;18.760;2022-12-18T00:02:56;45.50;;;17.40;;
75512;SDS011;64090;49.770;18.760;2022-12-18T00:05:59;58.10;;;17.90;;
75512;SDS011;64090;49.770;18.760;2022-12-18T00:09:02;48.70;;;19.40;;
75512;SDS011;64090;49.770;18.760;2022-12-18T00:12:06;52.90;;;19.20;;
75512;SDS011;64090;49.770;18.760;2022-12-18T00:15:17;44.60;;;17.30;;
75512;SDS011;64090;49.770;18.760;2022-12-18T00:18:19;52.20;;;19.20;;
75512;SDS011;64090;49.770;18.760;2022-12-18T00:21:22;25.90;;;9.50;;
75512;SDS011;64090;49.770;18.760;2022-12-18T00:24:25;59.60;;;18.10;;
75512;SDS011;64090;49.770;18.760;2022-12-18T00:27:28;22.90;;;9.50;;
75512;SDS011;64090;49.770;18.760;2022-12-18T00:30:31;23.10;;;10.30;;
75512;SDS011;64090;49.770;18.760;2022-12-18T00:33:34;57.20;;;18.80;;
75512;SDS011;64090;49.770;18.760;2022-12-18T00:36:39;39.90;;;12.80;;
75512;SDS011;64090;49.770;18.760;2022-12-18T00:39:43;49.10;;;15.10;;
75512;SDS011;64090;49.770;18.760;2022-12-18T00:42:46;39.20;;;13.30;;
75512;SDS011;64090;49.770;18.760;2022-12-18T00:45:58;51.50;;;16.40;;
75512;SDS011;64090;49.770;18.760;2022-12-18T00:49:01;48.40;;;16.70;;
75512;SDS011;64090;49.770;18.760;2022-12-18T00:52:05;64.40;;;20.30;;
75512;SDS011;64090;49.770;18.760;2022-12-18T00:55:08;40.30;;;16.40;;
75512;SDS011;64090;49.770;18.760;2022-12-18T00:58:12;24.20;;;10.50;;
75512;SDS011;64090;49.770;18.760;2022-12-18T01:01:16;10.80;;;8.20;;
75512;SDS011;64090;49.770;18.760;2022-12-18T01:04:19;23.00;;;7.10;;
75512;SDS011;64090;49.770;18.760;2022-12-18T01:07:22;44.20;;;13.60;;
75512;SDS011;64090;49.770;18.760;2022-12-18T01:10:25;53.50;;;15.50;;
75512;SDS011;64090;49.770;18.760;2022-12-18T01:13:28;43.30;;;15.30;;
75512;SDS011;64090;49.770;18.760;2022-12-18T01:16:31;55.40;;;17.90;;
75512;SDS011;64090;49.770;18.760;2022-12-18T01:19:34;48.90;;;18.80;;
75512;SDS011;64090;49.770;18.760;2022-12-18T01:22:37;52.70;;;19.30;;
75512;SDS011;64090;49.770;18.760;2022-12-18T01:25:40;42.30;;;17.00;;
75512;SDS011;64090;49.770;18.760;2022-12-18T01:28:43;48.70;;;17.40;;
75512;SDS011;64090;49.770;18.760;2022-12-18T01:31:46;48.30;;;18.30;;
75512;SDS011;64090;49.770;18.760;2022-12-18T01:34:49;43.20;;;15.80;;
75512;SDS011;64090;49.770;18.760;2022-12-18T01:37:55;42.30;;;15.70;;
75512;SDS011;64090;49.770;18.760;2022-12-18T01:40:59;42.20;;;16.20;;
75512;SDS011;64090;49.770;18.760;2022-12-18T01:44:46;31.60;;;13.00;;
75512;SDS011;64090;49.770;18.760;2022-12-18T01:50:58;28.50;;;11.80;;
75512;SDS011;64090;49.770;18.760;2022-12-18T01:54:02;36.20;;;13.90;;
75512;SDS011;64090;49.770;18.760;2022-12-18T01:57:05;36.20;;;14.30;;
75512;SDS011;64090;49.770;18.760;2022-12-18T02:00:18;11.40;;;5.40;;
75512;SDS011;64090;49.770;18.760;2022-12-18T02:03:23;47.80;;;23.90;;
75512;SDS011;64090;49.770;18.760;2022-12-18T02:06:32;55.30;;;21.30;;
75512;SDS011;64090;49.770;18.760;2022-12-18T02:09:50;47.50;;;17.20;;
75512;SDS011;64090;49.770;18.760;2022-12-18T02:13:25;59.30;;;23.30;;
75512;SDS011;64090;49.770;18.760;2022-12-18T02:16:46;49.30;;;22.30;;
75512;SDS011;64090;49.770;18.760;2022-12-18T02:26:49;33.90;;;16.80;;
75512;SDS011;64090;49.770;18.760;2022-12-18T02:29:54;37.50;;;15.10;;
75512;SDS011;64090;49.770;18.760;2022-12-18T02:33:00;34.70;;;13.00;;
75512;SDS011;64090;49.770;18.760;2022-12-18T02:36:07;33.20;;;15.60;;
75512;SDS011;64090;49.770;18.760;2022-12-18T02:39:13;40.90;;;16.60;;
75512;SDS011;64090;49.770;18.760;2022-12-18T02:42:18;44.70;;;16.50;;
75512;SDS011;64090;49.770;18.760;2022-12-18T02:45:22;44.40;;;17.50;;
75512;SDS011;64090;49.770;18.760;2022-12-18T02:48:30;47.20;;;17.50;;
75512;SDS011;64090;49.770;18.760;2022-12-18T02:51:53;39.50;;;14.90;;
75512;SDS011;64090;49.770;18.760;2022-12-18T03:01:35;37.00;;;15.20;;
75512;SDS011;64090;49.770;18.760;2022-12-18T03:08:24;33.70;;;13.80;;
75512;SDS011;64090;49.770;18.760;2022-12-18T03:11:33;30.00;;;14.30;;
75512;SDS011;64090;49.770;18.760;2022-12-18T03:18:24;36.20;;;15.80;;
75512;SDS011;64090;49.770;18.760;2022-12-18T03:21:33;36.00;;;15.20;;
75512;SDS011;64090;49.770;18.760;2022-12-18T03:24:42;36.40;;;14.10;;
75512;SDS011;64090;49.770;18.760;2022-12-18T03:27:46;39.20;;;15.60;;
75512;SDS011;64090;49.770;18.760;2022-12-18T03:30:55;40.40;;;15.30;;
75512;SDS011;64090;49.770;18.760;2022-12-18T03:34:02;27.00;;;14.00;;
75512;SDS011;64090;49.770;18.760;2022-12-18T03:37:11;29.20;;;13.10;;
75512;SDS011;64090;49.770;18.760;2022-12-18T03:40:14;29.60;;;13.60;;
75512;SDS011;64090;49.770;18.760;2022-12-18T03:50:18;37.40;;;13.50;;
75512;SDS011;64090;49.770;18.760;2022-12-18T03:53:29;32.30;;;11.60;;
75512;SDS011;64090;49.770;18.760;2022-12-18T03:56:38;30.90;;;12.60;;
75512;SDS011;64090;49.770;18.760;2022-12-18T03:59:45;32.50;;;13.30;;
75512;SDS011;64090;49.770;18.760;2022-12-18T04:02:52;39.70;;;14.90;;
75512;SDS011;64090;49.770;18.760;2022-12-18T04:05:57;30.70;;;14.30;;
75512;SDS011;64090;49.770;18.760;2022-12-18T04:09:03;31.50;;;11.40;;
75512;SDS011;64090;49.770;18.760;2022-12-18T04:12:08;30.90;;;12.00;;
75512;SDS011;64090;49.770;18.760;2022-12-18T04:15:11;34.00;;;14.00;;
75512;SDS011;64090;49.770;18.760;2022-12-18T04:18:15;34.10;;;11.70;;
75512;SDS011;64090;49.770;18.760;2022-12-18T04:21:18;27.10;;;11.40;;
75512;SDS011;64090;49.770;18.760;2022-12-18T04:24:21;26.20;;;10.60;;
75512;SDS011;64090;49.770;18.760;2022-12-18T04:27:24;32.50;;;14.10;;
75512;SDS011;64090;49.770;18.760;2022-12-18T04:30:27;26.40;;;11.00;;
75512;SDS011;64090;49.770;18.760;2022-12-18T04:33:30;26.20;;;11.00;;
75512;SDS011;64090;49.770;18.760;2022-12-18T04:36:33;27.70;;;10.80;;
75512;SDS011;64090;49.770;18.760;2022-12-18T04:39:36;34.90;;;13.20;;
75512;SDS011;64090;49.770;18.760;2022-12-18T04:42:39;36.70;;;15.00;;
75512;SDS011;64090;49.770;18.760;2022-12-18T04:45:43;39.80;;;16.50;;
75512;SDS011;64090;49.770;18.760;2022-12-18T04:48:46;40.40;;;15.00;;
75512;SDS011;64090;49.770;18.760;2022-12-18T04:51:49;34.50;;;16.70;;
75512;SDS011;64090;49.770;18.760;2022-12-18T04:54:52;20.20;;;8.80;;
75512;SDS011;64090;49.770;18.760;2022-12-18T04:57:55;13.70;;;4.80;;
75512;SDS011;64090;49.770;18.760;2022-12-18T05:00:58;25.60;;;10.10;;
75512;SDS011;64090;49.770;18.760;2022-12-18T05:04:01;31.80;;;11.80;;
75512;SDS011;64090;49.770;18.760;2022-12-18T05:07:04;29.40;;;12.30;;
75512;SDS011;64090;49.770;18.760;2022-12-18T05:10:07;26.80;;;9.80;;
75512;SDS011;64090;49.770;18.760;2022-12-18T05:13:11;17.70;;;7.10;;
75512;SDS011;64090;49.770;18.760;2022-12-18T05:16:15;25.00;;;11.50;;
75512;SDS011;64090;49.770;18.760;2022-12-18T05:19:18;24.10;;;9.70;;
75512;SDS011;64090;49.770;18.760;2022-12-18T05:22:21;29.10;;;10.90;;
75512;SDS011;64090;49.770;18.760;2022-12-18T05:25:24;28.80;;;11.30;;
75512;SDS011;64090;49.770;18.760;2022-12-18T05:28:28;27.00;;;12.70;;
75512;SDS011;64090;49.770;18.760;2022-12-18T05:31:32;33.10;;;13.90;;
75512;SDS011;64090;49.770;18.760;2022-12-18T05:34:41;32.40;;;13.80;;
75512;SDS011;64090;49.770;18.760;2022-12-18T05:37:44;36.10;;;12.60;;
75512;SDS011;64090;49.770;18.760;2022-12-18T05:40:47;31.10;;;13.20;;
75512;SDS011;64090;49.770;18.760;2022-12-18T05:43:51;30.40;;;14.30;;
75512;SDS011;64090;49.770;18.760;2022-12-18T05:46:53;28.30;;;11.40;;
75512;SDS011;64090;49.770;18.760;2022-12-18T05:49:56;29.60;;;14.40;;
75512;SDS011;64090;49.770;18.760;2022-12-18T05:52:59;27.40;;;12.10;;
75512;SDS011;64090;49.770;18.760;2022-12-18T05:56:03;17.10;;;7.60;;
75512;SDS011;64090;49.770;18.760;2022-12-18T05:59:07;26.30;;;9.90;;
75512;SDS011;64090;49.770;18.760;2022-12-18T06:02:10;31.60;;;12.90;;
75512;SDS011;64090;49.770;18.760;2022-12-18T06:05:13;37.00;;;13.30;;
75512;SDS011;64090;49.770;18.760;2022-12-18T06:08:16;31.40;;;12.50;;
75512;SDS011;64090;49.770;18.760;2022-12-18T06:11:21;29.80;;;11.60;;
75512;SDS011;64090;49.770;18.760;2022-12-18T06:14:27;23.50;;;7.10;;
75512;SDS011;64090;49.770;18.760;2022-12-18T06:17:30;31.70;;;12.30;;
75512;SDS011;64090;49.770;18.760;2022-12-18T06:20:34;35.90;;;12.40;;
75512;SDS011;64090;49.770;18.760;2022-12-18T06:23:39;25.40;;;11.50;;
75512;SDS011;64090;49.770;18.760;2022-12-18T06:26:42;10.30;;;4.50;;
75512;SDS011;64090;49.770;18.760;2022-12-18T06:29:45;21.60;;;7.70;;
75512;SDS011;64090;49.770;18.760;2022-12-18T06:32:49;29.70;;;11.20;;
75512;SDS011;64090;49.770;18.760;2022-12-18T06:36:08;22.70;;;9.70;;
75512;SDS011;64090;49.770;18.760;2022-12-18T06:39:14;24.70;;;11.50;;
75512;SDS011;64090;49.770;18.760;2022-12-18T06:42:17;26.10;;;11.00;;
75512;SDS011;64090;49.770;18.760;2022-12-18T06:45:20;24.90;;;12.50;;
75512;SDS011;64090;49.770;18.760;2022-12-18T06:48:23;29.00;;;11.60;;
75512;SDS011;64090;49.770;18.760;2022-12-18T06:51:26;27.90;;;9.80;;
75512;SDS011;64090;49.770;18.760;2022-12-18T06:54:29;43.90;;;18.80;;
75512;SDS011;64090;49.770;18.760;2022-12-18T06:57:32;31.60;;;12.30;;
75512;SDS011;64090;49.770;18.760;2022-12-18T07:00:35;18.90;;;6.60;;
75512;SDS011;64090;49.770;18.760;2022-12-18T07:03:38;32.50;;;12.30;;
75512;SDS011;64090;49.770;18.760;2022-12-18T07:06:43;31.60;;;12.10;;
75512;SDS011;64090;49.770;18.760;2022-12-18T07:09:46;13.40;;;5.60;;
75512;SDS011;64090;49.770;18.760;2022-12-18T07:12:49;35.80;;;12.80;;
75512;SDS011;64090;49.770;18.760;2022-12-18T07:15:52;36.70;;;14.10;;
75512;SDS011;64090;49.770;18.760;2022-12-18T07:18:55;37.70;;;14.30;;
75512;SDS011;64090;49.770;18.760;2022-12-18T07:21:58;24.90;;;11.10;;
75512;SDS011;64090;49.770;18.760;2022-12-18T07:25:01;30.90;;;11.40;;
75512;SDS011;64090;49.770;18.760;2022-12-18T07:28:04;28.10;;;10.30;;
75512;SDS011;64090;49.770;18.760;2022-12-18T07:31:09;28.00;;;9.60;;
75512;SDS011;64090;49.770;18.760;2022-12-18T07:34:14;40.00;;;14.10;;
75512;SDS011;64090;49.770;18.760;2022-12-18T07:37:17;38.50;;;13.60;;
75512;SDS011;64090;49.770;18.760;2022-12-18T07:40:20;35.90;;;13.30;;
75512;SDS011;64090;49.770;18.760;2022-12-18T07:43:23;34.60;;;17.90;;
75512;SDS011;64090;49.770;18.760;2022-12-18T07:46:26;35.00;;;18.50;;
75512;SDS011;64090;49.770;18.760;2022-12-18T07:49:29;28.50;;;12.60;;
75512;SDS011;64090;49.770;18.760;2022-12-18T07:52:32;32.10;;;12.20;;
75512;SDS011;64090;49.770;18.760;2022-12-18T07:55:35;31.50;;;12.30;;
75512;SDS011;64090;49.770;18.760;2022-12-18T07:58:58;26.50;;;10.40;;
75512;SDS011;64090;49.770;18.760;2022-12-18T08:02:02;34.60;;;13.10;;
75512;SDS011;64090;49.770;18.760;2022-12-18T08:05:05;38.30;;;15.10;;
75512;SDS011;64090;49.770;18.760;2022-12-18T08:08:08;37.20;;;13.10;;
75512;SDS011;64090;49.770;18.760;2022-12-18T08:11:11;28.20;;;9.90;;
75512;SDS011;64090;49.770;18.760;2022-12-18T08:14:14;43.20;;;18.60;;
75512;SDS011;64090;49.770;18.760;2022-12-18T08:17:18;41.70;;;16.60;;
75512;SDS011;64090;49.770;18.760;2022-12-18T08:20:21;44.00;;;19.90;;
75512;SDS011;64090;49.770;18.760;2022-12-18T08:23:24;45.10;;;17.10;;
75512;SDS011;64090;49.770;18.760;2022-12-18T08:26:30;40.70;;;15.00;;
75512;SDS011;64090;49.770;18.760;2022-12-18T08:29:33;42.70;;;17.40;;
75512;SDS011;64090;49.770;18.760;2022-12-18T08:32:36;44.90;;;16.50;;
75512;SDS011;64090;49.770;18.760;2022-12-18T08:35:40;45.10;;;17.20;;
75512;SDS011;64090;49.770;18.760;2022-12-18T08:38:47;52.20;;;22.40;;
75512;SDS011;64090;49.770;18.760;2022-12-18T08:41:50;37.50;;;15.50;;
75512;SDS011;64090;49.770;18.760;2022-12-18T08:45:12;43.60;;;18.50;;
75512;SDS011;64090;49.770;18.760;2022-12-18T08:48:14;50.40;;;21.20;;
75512;SDS011;64090;49.770;18.760;2022-12-18T08:51:23;40.80;;;16.30;;
75512;SDS011;64090;49.770;18.760;2022-12-18T08:54:26;47.20;;;18.50;;
75512;SDS011;64090;49.770;18.760;2022-12-18T08:57:29;38.40;;;19.80;;
75512;SDS011;64090;49.770;18.760;2022-12-18T09:00:32;51.30;;;21.50;;
75512;SDS011;64090;49.770;18.760;2022-12-18T09:03:35;45.30;;;18.60;;
75512;SDS011;64090;49.770;18.760;2022-12-18T09:06:38;52.30;;;26.80;;
75512;SDS011;64090;49.770;18.760;2022-12-18T09:09:40;45.50;;;17.80;;
75512;SDS011;64090;49.770;18.760;2022-12-18T09:12:43;37.50;;;13.80;;
75512;SDS011;64090;49.770;18.760;2022-12-18T09:15:50;31.10;;;10.50;;
75512;SDS011;64090;49.770;18.760;2022-12-18T09:18:54;35.70;;;12.50;;
75512;SDS011;64090;49.770;18.760;2022-12-18T09:22:02;36.10;;;12.10;;
75512;SDS011;64090;49.770;18.760;2022-12-18T09:25:04;48.00;;;16.90;;
75512;SDS011;64090;49.770;18.760;2022-12-18T09:28:17;42.60;;;15.90;;
75512;SDS011;64090;49.770;18.760;2022-12-18T09:31:22;34.10;;;13.00;;
75512;SDS011;64090;49.770;18.760;2022-12-18T09:34:26;40.20;;;16.60;;
75512;SDS011;64090;49.770;18.760;2022-12-18T09:37:29;46.30;;;17.00;;
75512;SDS011;64090;49.770;18.760;2022-12-18T09:40:34;51.20;;;23.60;;
75512;SDS011;64090;49.770;18.760;2022-12-18T09:43:43;60.20;;;24.70;;
75512;SDS011;64090;49.770;18.760;2022-12-18T09:47:10;67.80;;;28.10;;
75512;SDS011;64090;49.770;18.760;2022-12-18T09:50:24;55.10;;;23.80;;
75512;SDS011;64090;49.770;18.760;2022-12-18T09:53:29;56.20;;;21.00;;
75512;SDS011;64090;49.770;18.760;2022-12-18T09:56:36;55.80;;;23.40;;
75512;SDS011;64090;49.770;18.760;2022-12-18T09:59:44;52.50;;;19.50;;
75512;SDS011;64090;49.770;18.760;2022-12-18T10:02:53;49.10;;;20.30;;
75512;SDS011;64090;49.770;18.760;2022-12-18T10:06:10;49.40;;;23.20;;
75512;SDS011;64090;49.770;18.760;2022-12-18T10:12:25;45.00;;;19.80;;
75512;SDS011;64090;49.770;18.760;2022-12-18T10:15:47;42.50;;;15.90;;
75512;SDS011;64090;49.770;18.760;2022-12-18T10:28:58;45.00;;;16.60;;
75512;SDS011;64090;49.770;18.760;2022-12-18T10:32:07;45.10;;;18.90;;
75512;SDS011;64090;49.770;18.760;2022-12-18T10:35:18;46.10;;;20.30;;
75512;SDS011;64090;49.770;18.760;2022-12-18T10:38:27;48.60;;;19.00;;
75512;SDS011;64090;49.770;18.760;2022-12-18T10:41:32;50.20;;;20.80;;
75512;SDS011;64090;49.770;18.760;2022-12-18T10:44:35;48.40;;;20.60;;
75512;SDS011;64090;49.770;18.760;2022-12-18T10:47:46;45.80;;;20.10;;
75512;SDS011;64090;49.770;18.760;2022-12-18T10:50:51;43.80;;;17.50;;
75512;SDS011;64090;49.770;18.760;2022-12-18T11:00:39;50.10;;;19.60;;
75512;SDS011;64090;49.770;18.760;2022-12-18T11:03:43;50.90;;;19.20;;
75512;SDS011;64090;49.770;18.760;2022-12-18T11:07:00;48.30;;;19.00;;
75512;SDS011;64090;49.770;18.760;2022-12-18T11:10:15;46.40;;;18.00;;
75512;SDS011;64090;49.770;18.760;2022-12-18T11:13:21;49.60;;;18.70;;
75512;SDS011;64090;49.770;18.760;2022-12-18T11:16:26;39.00;;;18.30;;
75512;SDS011;64090;49.770;18.760;2022-12-18T11:19:35;45.80;;;17.90;;
75512;SDS011;64090;49.770;18.760;2022-12-18T11:22:39;44.60;;;18.00;;
75512;SDS011;64090;49.770;18.760;2022-12-18T11:25:50;47.30;;;17.40;;
75512;SDS011;64090;49.770;18.760;2022-12-18T11:29:08;43.20;;;16.40;;
75512;SDS011;64090;49.770;18.760;2022-12-18T11:35:49;45.10;;;19.50;;
75512;SDS011;64090;49.770;18.760;2022-12-18T11:38:54;45.30;;;18.50;;
75512;SDS011;64090;49.770;18.760;2022-12-18T11:42:04;44.10;;;17.50;;
75512;SDS011;64090;49.770;18.760;2022-12-18T11:48:30;46.70;;;16.60;;
75512;SDS011;64090;49.770;18.760;2022-12-18T11:51:50;46.30;;;19.10;;
75512;SDS011;64090;49.770;18.760;2022-12-18T11:54:59;49.60;;;18.00;;
75512;SDS011;64090;49.770;18.760;2022-12-18T12:04:58;47.70;;;18.80;;
75512;SDS011;64090;49.770;18.760;2022-12-18T12:18:14;49.80;;;19.60;;
75512;SDS011;64090;49.770;18.760;2022-12-18T12:34:30;49.50;;;20.50;;
75512;SDS011;64090;49.770;18.760;2022-12-18T12:38:13;56.60;;;23.90;;
75512;SDS011;64090;49.770;18.760;2022-12-18T12:41:23;49.70;;;21.50;;
75512;SDS011;64090;49.770;18.760;2022-12-18T12:44:50;53.40;;;20.10;;
75512;SDS011;64090;49.770;18.760;2022-12-18T12:47:58;44.60;;;19.40;;
75512;SDS011;64090;49.770;18.760;2022-12-18T12:51:08;47.70;;;19.10;;
75512;SDS011;64090;49.770;18.760;2022-12-18T12:54:16;49.10;;;20.20;;
75512;SDS011;64090;49.770;18.760;2022-12-18T12:57:24;51.30;;;17.90;;
75512;SDS011;64090;49.770;18.760;2022-12-18T13:00:31;43.50;;;18.30;;
75512;SDS011;64090;49.770;18.760;2022-12-18T13:13:28;41.10;;;16.50;;
75512;SDS011;64090;49.770;18.760;2022-12-18T13:17:13;44.70;;;21.10;;
75512;SDS011;64090;49.770;18.760;2022-12-18T13:20:24;48.50;;;19.70;;
75512;SDS011;64090;49.770;18.760;2022-12-18T13:23:39;49.10;;;22.20;;
75512;SDS011;64090;49.770;18.760;2022-12-18T13:26:43;55.30;;;21.00;;
75512;SDS011;64090;49.770;18.760;2022-12-18T13:29:47;45.40;;;18.80;;
75512;SDS011;64090;49.770;18.760;2022-12-18T13:33:23;53.80;;;22.10;;
75512;SDS011;64090;49.770;18.760;2022-12-18T13:39:31;59.30;;;21.00;;
75512;SDS011;64090;49.770;18.760;2022-12-18T13:42:41;55.80;;;23.60;;
75512;SDS011;64090;49.770;18.760;2022-12-18T13:52:33;49.30;;;17.40;;
75512;SDS011;64090;49.770;18.760;2022-12-18T13:55:39;49.30;;;20.20;;
75512;SDS011;64090;49.770;18.760;2022-12-18T14:02:27;47.70;;;20.60;;
75512;SDS011;64090;49.770;18.760;2022-12-18T14:05:35;57.60;;;22.20;;
75512;SDS011;64090;49.770;18.760;2022-12-18T14:08:44;54.30;;;22.40;;
75512;SDS011;64090;49.770;18.760;2022-12-18T14:11:49;49.50;;;23.40;;
75512;SDS011;64090;49.770;18.760;2022-12-18T14:14:53;57.50;;;22.30;;
75512;SDS011;64090;49.770;18.760;2022-12-18T14:21:22;54.30;;;24.00;;
75512;SDS011;64090;49.770;18.760;2022-12-18T14:24:34;57.00;;;25.20;;
75512;SDS011;64090;49.770;18.760;2022-12-18T14:27:41;59.40;;;24.40;;
75512;SDS011;64090;49.770;18.760;2022-12-18T14:30:46;66.90;;;29.00;;
75512;SDS011;64090;49.770;18.760;2022-12-18T14:33:49;60.30;;;29.10;;
75512;SDS011;64090;49.770;18.760;2022-12-18T14:36:52;53.10;;;27.60;;
75512;SDS011;64090;49.770;18.760;2022-12-18T14:39:58;53.60;;;23.50;;
75512;SDS011;64090;49.770;18.760;2022-12-18T14:43:12;46.90;;;23.30;;
75512;SDS011;64090;49.770;18.760;2022-12-18T14:46:27;51.20;;;26.40;;
75512;SDS011;64090;49.770;18.760;2022-12-18T14:49:33;52.50;;;25.20;;
75512;SDS011;64090;49.770;18.760;2022-12-18T14:52:38;65.80;;;29.60;;
75512;SDS011;64090;49.770;18.760;2022-12-18T14:55:43;56.10;;;25.50;;
75512;SDS011;64090;49.770;18.760;2022-12-18T14:58:50;68.20;;;28.90;;
75512;SDS011;64090;49.770;18.760;2022-12-18T15:05:04;71.90;;;33.60;;
75512;SDS011;64090;49.770;18.760;2022-12-18T15:08:31;79.40;;;35.30;;
75512;SDS011;64090;49.770;18.760;2022-12-18T15:14:42;104.40;;;47.10;;
75512;SDS011;64090;49.770;18.760;2022-12-18T15:17:45;117.30;;;50.20;;
75512;SDS011;64090;49.770;18.760;2022-12-18T15:23:58;101.90;;;45.00;;
75512;SDS011;64090;49.770;18.760;2022-12-18T15:27:01;96.90;;;38.60;;
75512;SDS011;64090;49.770;18.760;2022-12-18T15:33:20;68.30;;;37.80;;
75512;SDS011;64090;49.770;18.760;2022-12-18T15:36:29;83.70;;;35.00;;
75512;SDS011;64090;49.770;18.760;2022-12-18T15:39:32;83.20;;;40.00;;
75512;SDS011;64090;49.770;18.760;2022-12-18T15:42:35;79.40;;;35.50;;
75512;SDS011;64090;49.770;18.760;2022-12-18T15:45:57;71.50;;;32.10;;
75512;SDS011;64090;49.770;18.760;2022-12-18T15:49:02;72.00;;;35.90;;
75512;SDS011;64090;49.770;18.760;2022-12-18T15:52:05;81.60;;;43.70;;
75512;SDS011;64090;49.770;18.760;2022-12-18T15:55:12;70.10;;;33.30;;
75512;SDS011;64090;49.770;18.760;2022-12-18T15:58:35;68.60;;;30.70;;
75512;SDS011;64090;49.770;18.760;2022-12-18T16:01:38;62.80;;;33.10;;
75512;SDS011;64090;49.770;18.760;2022-12-18T16:04:44;67.70;;;33.20;;
75512;SDS011;64090;49.770;18.760;2022-12-18T16:07:48;58.30;;;29.80;;
75512;SDS011;64090;49.770;18.760;2022-12-18T16:10:51;67.80;;;33.30;;
75512;SDS011;64090;49.770;18.760;2022-12-18T16:13:54;101.00;;;44.80;;
75512;SDS011;64090;49.770;18.760;2022-12-18T16:16:58;160.90;;;83.80;;
75512;SDS011;64090;49.770;18.760;2022-12-18T16:20:02;112.40;;;61.30;;
75512;SDS011;64090;49.770;18.760;2022-12-18T16:23:06;108.20;;;58.40;;
75512;SDS011;64090;49.770;18.760;2022-12-18T16:26:09;109.70;;;50.60;;
75512;SDS011;64090;49.770;18.760;2022-12-18T16:29:12;95.70;;;48.00;;
75512;SDS011;64090;49.770;18.760;2022-12-18T16:32:18;90.20;;;48.40;;
75512;SDS011;64090;49.770;18.760;2022-12-18T16:35:24;126.50;;;66.30;;
75512;SDS011;64090;49.770;18.760;2022-12-18T16:38:28;126.20;;;68.30;;
75512;SDS011;64090;49.770;18.760;2022-12-18T16:41:32;119.30;;;57.00;;
75512;SDS011;64090;49.770;18.760;2022-12-18T16:44:35;110.30;;;62.70;;
75512;SDS011;64090;49.770;18.760;2022-12-18T16:47:38;104.50;;;47.70;;
75512;SDS011;64090;49.770;18.760;2022-12-18T16:50:42;98.30;;;48.30;;
75512;SDS011;64090;49.770;18.760;2022-12-18T16:53:44;166.80;;;91.00;;
75512;SDS011;64090;49.770;18.760;2022-12-18T16:56:47;157.30;;;87.40;;
75512;SDS011;64090;49.770;18.760;2022-12-18T16:59:53;153.20;;;71.40;;
75512;SDS011;64090;49.770;18.760;2022-12-18T17:03:01;154.70;;;82.40;;
75512;SDS011;64090;49.770;18.760;2022-12-18T17:06:04;173.70;;;79.90;;
75512;SDS011;64090;49.770;18.760;2022-12-18T17:09:10;159.70;;;82.10;;
75512;SDS011;64090;49.770;18.760;2022-12-18T17:12:18;125.30;;;58.10;;
75512;SDS011;64090;49.770;18.760;2022-12-18T17:15:21;171.60;;;83.40;;
75512;SDS011;64090;49.770;18.760;2022-12-18T17:18:24;137.40;;;65.20;;
75512;SDS011;64090;49.770;18.760;2022-12-18T17:21:28;96.30;;;52.20;;
75512;SDS011;64090;49.770;18.760;2022-12-18T17:24:31;104.30;;;43.80;;
75512;SDS011;64090;49.770;18.760;2022-12-18T17:27:37;89.30;;;46.70;;
75512;SDS011;64090;49.770;18.760;2022-12-18T17:30:40;101.20;;;47.10;;
75512;SDS011;64090;49.770;18.760;2022-12-18T17:33:43;87.00;;;48.30;;
75512;SDS011;64090;49.770;18.760;2022-12-18T17:36:46;85.70;;;39.10;;
75512;SDS011;64090;49.770;18.760;2022-12-18T17:39:49;94.90;;;50.00;;
75512;SDS011;64090;49.770;18.760;2022-12-18T17:42:52;101.30;;;53.00;;
75512;SDS011;64090;49.770;18.760;2022-12-18T17:45:55;103.90;;;54.40;;
75512;SDS011;64090;49.770;18.760;2022-12-18T17:49:00;92.10;;;51.20;;
75512;SDS011;64090;49.770;18.760;2022-12-18T17:52:04;97.70;;;47.30;;
75512;SDS011;64090;49.770;18.760;2022-12-18T17:55:07;89.30;;;40.20;;
75512;SDS011;64090;49.770;18.760;2022-12-18T17:58:10;64.00;;;32.70;;
75512;SDS011;64090;49.770;18.760;2022-12-18T18:01:14;70.70;;;37.80;;
75512;SDS011;64090;49.770;18.760;2022-12-18T18:04:18;74.90;;;43.00;;
75512;SDS011;64090;49.770;18.760;2022-12-18T18:07:21;64.60;;;40.40;;
75512;SDS011;64090;49.770;18.760;2022-12-18T18:10:24;78.50;;;42.90;;
75512;SDS011;64090;49.770;18.760;2022-12-18T18:13:27;77.30;;;42.80;;
75512;SDS011;64090;49.770;18.760;2022-12-18T18:16:49;65.90;;;36.30;;
75512;SDS011;64090;49.770;18.760;2022-12-18T18:19:53;51.30;;;26.30;;
75512;SDS011;64090;49.770;18.760;2022-12-18T18:22:56;63.30;;;32.70;;
75512;SDS011;64090;49.770;18.760;2022-12-18T18:26:02;54.00;;;34.00;;
75512;SDS011;64090;49.770;18.760;2022-12-18T18:29:07;58.70;;;30.10;;
75512;SDS011;64090;49.770;18.760;2022-12-18T18:32:14;82.80;;;41.70;;
75512;SDS011;64090;49.770;18.760;2022-12-18T18:35:16;47.70;;;25.60;;
75512;SDS011;64090;49.770;18.760;2022-12-18T18:38:39;56.30;;;35.70;;
75512;SDS011;64090;49.770;18.760;2022-12-18T18:41:49;51.60;;;31.80;;
75512;SDS011;64090;49.770;18.760;2022-12-18T18:44:53;36.60;;;25.00;;
75512;SDS011;64090;49.770;18.760;2022-12-18T18:47:55;46.90;;;27.30;;
75512;SDS011;64090;49.770;18.760;2022-12-18T18:51:10;33.80;;;21.90;;
75512;SDS011;64090;49.770;18.760;2022-12-18T18:54:23;32.90;;;18.10;;
75512;SDS011;64090;49.770;18.760;2022-12-18T18:57:27;40.50;;;20.20;;
75512;SDS011;64090;49.770;18.760;2022-12-18T19:00:32;39.00;;;24.40;;
75512;SDS011;64090;49.770;18.760;2022-12-18T19:03:35;37.00;;;25.00;;
75512;SDS011;64090;49.770;18.760;2022-12-18T19:06:39;41.40;;;24.50;;
75512;SDS011;64090;49.770;18.760;2022-12-18T19:09:43;45.30;;;25.70;;
75512;SDS011;64090;49.770;18.760;2022-12-18T19:12:46;47.20;;;26.50;;
75512;SDS011;64090;49.770;18.760;2022-12-18T19:16:08;28.90;;;20.90;;
75512;SDS011;64090;49.770;18.760;2022-12-18T19:19:12;32.70;;;23.70;;
75512;SDS011;64090;49.770;18.760;2022-12-18T19:22:15;36.80;;;20.60;;
75512;SDS011;64090;49.770;18.760;2022-12-18T19:25:18;31.20;;;19.90;;
75512;SDS011;64090;49.770;18.760;2022-12-18T19:28:21;25.00;;;18.90;;
75512;SDS011;64090;49.770;18.760;2022-12-18T19:31:27;28.90;;;15.90;;
75512;SDS011;64090;49.770;18.760;2022-12-18T19:34:37;33.30;;;17.60;;
75512;SDS011;64090;49.770;18.760;2022-12-18T19:37:40;25.30;;;15.20;;
75512;SDS011;64090;49.770;18.760;2022-12-18T19:40:43;27.10;;;14.20;;
75512;SDS011;64090;49.770;18.760;2022-12-18T19:43:46;25.70;;;17.00;;
75512;SDS011;64090;49.770;18.760;2022-12-18T19:46:50;31.80;;;19.00;;
75512;SDS011;64090;49.770;18.760;2022-12-18T19:49:53;39.50;;;26.10;;
75512;SDS011;64090;49.770;18.760;2022-12-18T19:52:56;36.70;;;23.30;;
75512;SDS011;64090;49.770;18.760;2022-12-18T19:56:06;42.90;;;27.30;;
75512;SDS011;64090;49.770;18.760;2022-12-18T19:59:14;38.90;;;24.20;;
75512;SDS011;64090;49.770;18.760;2022-12-18T20:02:17;42.50;;;19.60;;